Terminal Aerodrome Forecast
Issued by NWS

Home | Current Version | Previous Version | Text Only | Print | Product List | Glossary On
Versions: 1 2 3 4 5 6 7 8 9 10 11 12 13 14 15
754
FTUS45 KRIW 121722
TAFCOD
TAF
KCOD 121722Z 1218/1318 VRB05KT P6SM SCT080 BKN130
     FM122000 05006KT P6SM SCT110 BKN250
     FM130300 25008KT P6SM BKN250
     FM131600 23010G15KT P6SM SCT080 BKN150 WS020/26040KT
      AMD LTD TO CLD VIS AND WIND=

USA.gov is the U.S. government's official web portal to all federal, state and local government web resources and services.